Time;durP1;ratioP1;P1;durP2;ratioP2;P2;SDS_P1;SDS_P2;PMS_P1;PMS_P2;Temp;Humidity;BMP_temperature;BMP_pressure;BME280_temperature;BME280_humidity;BME280_pressure;Samples;Min_cycle;Max_cycle;Signal;HPM_P1;HPM_P2
2022/09/08 00:01:46;;;;;;;4.68;3.13;;;19.70;98.10;;;;;;5073433;28;20575;-70
2022/09/08 00:04:15;;;;;;;9.77;3.08;;;19.60;98.40;;;;;;5072013;28;20199;-68
2022/09/08 00:06:46;;;;;;;5.38;2.95;;;19.50;98.70;;;;;;5073219;28;20206;-69
2022/09/08 00:09:16;;;;;;;4.68;2.72;;;19.50;98.90;;;;;;5071737;28;20218;-66
2022/09/08 00:11:44;;;;;;;4.18;2.58;;;19.50;99.00;;;;;;5073421;28;20218;-67
2022/09/08 00:14:13;;;;;;;4.90;2.88;;;19.60;99.10;;;;;;5072478;28;20195;-67
2022/09/08 00:16:42;;;;;;;4.55;3.25;;;19.60;99.50;;;;;;5072898;28;20199;-67
2022/09/08 00:19:11;;;;;;;5.95;2.90;;;19.60;99.90;;;;;;5071322;28;20218;-68
2022/09/08 00:21:40;;;;;;;6.18;3.13;;;19.50;99.90;;;;;;5072898;28;20191;-68
2022/09/08 00:24:09;;;;;;;6.50;2.95;;;19.40;99.90;;;;;;5072490;28;20663;-68
2022/09/08 00:26:39;;;;;;;10.75;4.15;;;19.30;99.90;;;;;;5072224;28;20666;-68
2022/09/08 00:29:08;;;;;;;12.52;4.72;;;19.00;99.90;;;;;;5071586;28;20231;-72
2022/09/08 00:31:40;;;;;;;7.22;3.35;;;18.80;99.90;;;;;;5073017;28;20195;-70
2022/09/08 00:34:10;;;;;;;10.70;4.38;;;18.50;99.90;;;;;;5073337;28;20191;-69
2022/09/08 00:36:40;;;;;;;7.63;4.28;;;18.20;99.90;;;;;;5072754;28;20198;-68
2022/09/08 00:39:09;;;;;;;5.25;3.80;;;17.90;99.90;;;;;;5072376;28;20219;-68
2022/09/08 00:41:39;;;;;;;8.70;4.97;;;17.70;99.90;;;;;;5070745;28;20198;-67
2022/09/08 00:44:36;;;;;;;9.57;5.20;;;17.70;99.90;;;;;;5072570;28;20211;-68
2022/09/08 00:47:10;;;;;;;11.80;6.28;;;17.60;99.90;;;;;;5072040;28;20195;-67
2022/09/08 00:49:39;;;;;;;10.48;5.70;;;17.60;99.90;;;;;;5072989;28;20211;-68
2022/09/08 00:52:07;;;;;;;11.32;5.55;;;17.60;99.90;;;;;;5075870;28;20194;-67
2022/09/08 00:54:36;;;;;;;10.30;6.10;;;17.50;99.90;;;;;;5076134;28;20566;-66
2022/09/08 00:57:07;;;;;;;27.38;13.30;;;17.50;99.90;;;;;;5074619;28;20191;-67
2022/09/08 00:59:36;;;;;;;31.88;18.73;;;17.40;99.90;;;;;;5076834;28;20191;-67
2022/09/08 01:02:21;;;;;;;15.68;9.50;;;17.40;99.90;;;;;;5076762;28;20191;-68
2022/09/08 01:04:57;;;;;;;16.30;9.63;;;17.40;99.90;;;;;;5076045;28;20202;-67
2022/09/08 01:13:21;;;;;;;33.95;18.83;;;17.20;99.90;;;;;;5075839;28;20186;-68
2022/09/08 01:15:50;;;;;;;33.00;18.77;;;17.20;99.90;;;;;;5075590;28;20207;-67
2022/09/08 01:18:19;;;;;;;21.17;12.50;;;17.20;99.90;;;;;;5073613;28;20613;-68
2022/09/08 01:20:54;;;;;;;16.10;9.45;;;17.10;99.90;;;;;;5076459;28;20213;-69
2022/09/08 01:23:42;;;;;;;13.52;8.30;;;17.00;99.90;;;;;;5075469;28;20195;-67
2022/09/08 01:26:29;;;;;;;15.85;11.43;;;17.00;99.90;;;;;;5074972;28;20199;-67
2022/09/08 01:29:03;;;;;;;13.70;9.63;;;17.00;99.90;;;;;;5076351;28;20226;-68
2022/09/08 01:31:35;;;;;;;20.40;12.65;;;17.00;99.90;;;;;;5075230;28;20285;-67
2022/09/08 01:34:04;;;;;;;22.95;13.38;;;17.10;99.90;;;;;;5075374;28;20669;-67
2022/09/08 01:36:33;;;;;;;19.67;12.75;;;17.10;99.90;;;;;;5076178;28;20206;-66
2022/09/08 01:39:01;;;;;;;20.15;13.27;;;17.20;99.90;;;;;;5073855;28;20230;-68
2022/09/08 01:41:30;;;;;;;11.35;8.80;;;17.20;99.90;;;;;;5075821;28;20684;-66
2022/09/08 01:44:00;;;;;;;10.52;6.72;;;17.20;99.90;;;;;;5077903;28;20214;-67
2022/09/08 01:46:30;;;;;;;13.32;7.70;;;17.30;99.90;;;;;;5074737;28;20672;-66
2022/09/08 01:48:59;;;;;;;7.90;5.47;;;17.30;99.90;;;;;;5075317;28;20609;-67
2022/09/08 01:51:28;;;;;;;8.32;5.10;;;17.40;99.90;;;;;;5075349;28;20685;-65
2022/09/08 01:53:57;;;;;;;8.63;4.90;;;17.40;99.90;;;;;;5076794;28;20203;-67
2022/09/08 01:56:26;;;;;;;9.88;5.47;;;17.40;99.90;;;;;;5076096;28;20199;-66
2022/09/08 01:58:54;;;;;;;8.93;6.00;;;17.40;99.90;;;;;;5074768;28;20580;-66
2022/09/08 02:01:25;;;;;;;6.82;4.82;;;17.40;99.90;;;;;;5075411;28;20214;-66
2022/09/08 02:03:53;;;;;;;7.85;5.32;;;17.40;99.90;;;;;;5073318;28;20555;-66
2022/09/08 02:06:22;;;;;;;8.50;5.97;;;17.50;99.90;;;;;;5074381;28;20195;-67
2022/09/08 02:08:51;;;;;;;7.20;5.13;;;17.50;99.90;;;;;;5073970;28;20219;-66
2022/09/08 02:11:19;;;;;;;10.77;5.10;;;17.50;99.90;;;;;;5075256;28;20242;-66
2022/09/08 02:13:48;;;;;;;4.95;4.05;;;17.50;99.90;;;;;;5074171;28;20239;-65
2022/09/08 02:16:17;;;;;;;7.50;4.80;;;17.50;99.90;;;;;;5072608;28;20206;-67
2022/09/08 02:18:48;;;;;;;6.00;3.80;;;17.50;99.90;;;;;;5074041;28;20242;-67
2022/09/08 02:21:20;;;;;;;8.68;4.60;;;17.50;99.90;;;;;;5075399;28;20207;-68
2022/09/08 02:23:50;;;;;;;6.45;4.15;;;17.50;99.90;;;;;;5074561;28;20211;-67
2022/09/08 02:26:22;;;;;;;6.60;4.15;;;17.50;99.90;;;;;;5074822;28;20199;-65
2022/09/08 02:28:52;;;;;;;5.47;3.90;;;17.40;99.90;;;;;;5073436;28;20215;-66
2022/09/08 02:31:21;;;;;;;7.22;3.70;;;17.40;99.90;;;;;;5073650;28;20219;-66
2022/09/08 02:33:51;;;;;;;7.88;4.43;;;17.40;99.90;;;;;;5094933;28;20210;-65
2022/09/08 02:36:20;;;;;;;5.72;4.10;;;17.50;99.90;;;;;;5082479;28;20214;-66
2022/09/08 02:38:50;;;;;;;6.55;4.40;;;17.40;99.90;;;;;;5073542;28;20697;-66
2022/09/08 02:41:18;;;;;;;6.68;4.32;;;17.40;99.90;;;;;;5075263;28;20195;-65
2022/09/08 02:43:47;;;;;;;7.90;4.80;;;17.40;99.90;;;;;;5073896;28;20199;-65
2022/09/08 02:46:16;;;;;;;5.85;4.35;;;17.40;99.90;;;;;;5074857;28;20214;-67
2022/09/08 02:48:45;;;;;;;6.78;4.47;;;17.40;99.90;;;;;;5094944;28;20708;-67
2022/09/08 02:51:17;;;;;;;6.40;4.40;;;17.40;99.90;;;;;;5094170;28;20226;-66
2022/09/08 02:53:46;;;;;;;5.63;4.30;;;17.50;99.90;;;;;;5080025;28;20237;-67
2022/09/08 02:56:15;;;;;;;7.15;4.00;;;17.40;99.90;;;;;;5074655;28;20203;-67
2022/09/08 02:58:43;;;;;;;8.20;4.65;;;17.40;99.90;;;;;;5073493;28;20285;-65
2022/09/08 03:01:12;;;;;;;6.22;5.07;;;17.40;99.90;;;;;;5073654;28;20278;-68
2022/09/08 03:03:41;;;;;;;9.25;5.00;;;17.40;99.90;;;;;;5074188;28;20207;-67
2022/09/08 03:06:09;;;;;;;7.60;5.05;;;17.40;99.90;;;;;;5075048;28;20218;-67
2022/09/08 03:08:40;;;;;;;9.18;4.82;;;17.40;99.90;;;;;;5073034;28;20231;-66
2022/09/08 03:11:09;;;;;;;7.10;4.30;;;17.40;99.90;;;;;;5073821;28;20230;-66
2022/09/08 03:13:39;;;;;;;5.05;4.55;;;17.30;99.90;;;;;;5071909;28;20670;-66
2022/09/08 03:16:08;;;;;;;6.45;5.57;;;17.40;99.90;;;;;;5073170;28;20218;-65
2022/09/08 03:18:37;;;;;;;9.98;6.57;;;17.40;99.90;;;;;;5072680;28;20237;-66
2022/09/08 03:21:08;;;;;;;11.18;6.20;;;17.40;99.90;;;;;;5073075;28;20198;-65
2022/09/08 03:23:38;;;;;;;10.23;5.80;;;17.40;99.90;;;;;;5073271;28;20203;-66
2022/09/08 03:26:12;;;;;;;8.68;5.25;;;17.40;99.90;;;;;;5074017;28;20688;-66
2022/09/08 03:28:41;;;;;;;9.02;5.20;;;17.40;99.90;;;;;;5071991;28;20720;-67
2022/09/08 03:31:11;;;;;;;4.22;3.60;;;17.40;99.90;;;;;;5073701;28;20203;-66
2022/09/08 03:33:41;;;;;;;6.47;3.35;;;17.30;99.90;;;;;;5073632;28;20320;-66
2022/09/08 03:36:11;;;;;;;7.22;5.70;;;17.30;99.90;;;;;;5071982;28;20676;-67
2022/09/08 03:38:41;;;;;;;7.55;3.60;;;17.30;99.90;;;;;;5072943;28;20223;-66
2022/09/08 03:41:13;;;;;;;3.67;2.70;;;17.20;99.90;;;;;;5073075;28;20203;-66
2022/09/08 03:43:44;;;;;;;4.80;2.65;;;17.20;99.90;;;;;;5073862;28;20697;-66
2022/09/08 03:46:13;;;;;;;5.40;2.50;;;17.20;99.90;;;;;;5072736;28;20209;-66
2022/09/08 03:48:42;;;;;;;5.28;2.92;;;17.20;99.90;;;;;;5073347;28;20223;-66
2022/09/08 03:51:13;;;;;;;8.35;2.83;;;17.20;99.90;;;;;;5071822;28;20230;-68
2022/09/08 03:53:43;;;;;;;3.63;1.90;;;17.10;99.90;;;;;;5073385;28;20202;-67
2022/09/08 03:56:14;;;;;;;2.65;2.33;;;17.10;99.90;;;;;;5072802;28;20222;-66
2022/09/08 03:58:43;;;;;;;2.70;2.28;;;17.00;99.90;;;;;;5072895;28;20230;-66
2022/09/08 04:01:16;;;;;;;4.25;1.95;;;17.00;99.90;;;;;;5071899;28;20560;-66
2022/09/08 04:03:45;;;;;;;4.15;2.42;;;17.00;99.90;;;;;;5071501;28;20203;-70
2022/09/08 04:06:15;;;;;;;2.35;1.75;;;17.00;99.90;;;;;;5072835;28;20202;-66
2022/09/08 04:08:44;;;;;;;2.92;2.15;;;17.00;99.90;;;;;;5073040;28;20258;-66
2022/09/08 04:11:14;;;;;;;2.80;1.98;;;16.90;99.90;;;;;;5071893;28;20214;-66
2022/09/08 04:13:43;;;;;;;2.60;1.80;;;16.90;99.90;;;;;;5073282;28;20226;-67
2022/09/08 04:16:11;;;;;;;3.70;2.10;;;16.90;99.90;;;;;;5072951;28;20207;-66
2022/09/08 04:18:40;;;;;;;2.75;1.92;;;16.90;99.90;;;;;;5073296;28;20226;-67
2022/09/08 04:21:10;;;;;;;2.47;1.90;;;16.90;99.90;;;;;;5073081;28;20199;-66
2022/09/08 04:23:39;;;;;;;2.08;1.88;;;16.90;99.90;;;;;;5074597;28;20222;-66
2022/09/08 04:26:11;;;;;;;3.13;1.60;;;16.90;99.90;;;;;;5071119;28;20195;-66
2022/09/08 04:28:42;;;;;;;4.00;1.40;;;16.90;99.90;;;;;;5072891;28;20220;-67
2022/09/08 04:31:13;;;;;;;1.92;1.52;;;16.80;99.90;;;;;;5072697;28;20207;-66
2022/09/08 04:33:42;;;;;;;2.00;1.40;;;16.80;99.90;;;;;;5071924;28;20227;-67
2022/09/08 04:36:13;;;;;;;1.90;1.27;;;16.80;99.90;;;;;;5070542;28;20202;-67
2022/09/08 04:38:55;;;;;;;2.90;1.30;;;16.80;99.90;;;;;;5072347;28;20219;-67
2022/09/08 04:41:24;;;;;;;2.70;1.55;;;16.70;99.90;;;;;;5072254;28;20203;-72
2022/09/08 04:43:54;;;;;;;2.42;1.30;;;16.70;99.90;;;;;;5092509;28;20592;-67
2022/09/08 04:46:23;;;;;;;1.52;1.15;;;16.70;99.90;;;;;;5093318;28;20669;-66
2022/09/08 04:48:51;;;;;;;1.80;1.48;;;16.80;99.90;;;;;;5093101;28;20214;-67
2022/09/08 04:51:21;;;;;;;1.27;1.17;;;16.80;99.90;;;;;;5077099;28;20214;-67
2022/09/08 04:53:51;;;;;;;2.78;1.15;;;16.80;99.90;;;;;;5072642;28;20242;-68
2022/09/08 04:56:21;;;;;;;4.10;1.50;;;16.80;99.90;;;;;;5072908;28;20195;-67
2022/09/08 04:58:51;;;;;;;3.90;1.52;;;16.80;99.90;;;;;;5072778;28;20215;-67
2022/09/08 05:01:26;;;;;;;2.83;1.17;;;16.80;99.90;;;;;;5072732;28;20199;-67
2022/09/08 05:03:57;;;;;;;2.63;1.52;;;16.80;99.90;;;;;;5072092;28;20590;-67
2022/09/08 05:06:26;;;;;;;2.85;1.50;;;16.80;99.90;;;;;;5071243;28;20538;-66
2022/09/08 05:08:56;;;;;;;3.22;1.60;;;16.80;99.90;;;;;;5072734;28;20219;-66
2022/09/08 05:11:26;;;;;;;2.00;1.50;;;16.80;99.90;;;;;;5069166;28;20208;-67
2022/09/08 05:13:56;;;;;;;2.35;1.38;;;16.80;99.90;;;;;;5072681;28;20234;-66
2022/09/08 05:16:28;;;;;;;1.75;1.60;;;16.80;99.90;;;;;;5072737;28;20199;-67
2022/09/08 05:18:58;;;;;;;2.72;1.48;;;16.80;99.90;;;;;;5071517;28;20222;-66
2022/09/08 05:21:27;;;;;;;3.28;1.63;;;16.80;99.90;;;;;;5071173;28;20192;-65
2022/09/08 05:24:00;;;;;;;3.35;1.40;;;16.80;99.90;;;;;;5072225;28;20223;-67
2022/09/08 05:26:30;;;;;;;5.13;1.75;;;16.90;99.90;;;;;;5072677;28;20207;-68
2022/09/08 05:28:58;;;;;;;2.65;1.42;;;16.90;99.90;;;;;;5071533;28;20226;-65
2022/09/08 05:31:30;;;;;;;2.40;1.60;;;16.90;99.90;;;;;;5071725;28;20214;-68
2022/09/08 05:33:58;;;;;;;3.53;1.65;;;16.90;99.90;;;;;;5072523;28;20274;-68
2022/09/08 05:36:29;;;;;;;2.15;1.92;;;16.80;99.90;;;;;;5070829;28;20202;-67
2022/09/08 05:38:58;;;;;;;3.63;2.05;;;16.80;99.90;;;;;;5073784;28;20211;-66
2022/09/08 05:41:27;;;;;;;2.45;1.77;;;16.80;99.90;;;;;;5075068;28;20199;-67
2022/09/08 05:43:57;;;;;;;4.35;3.08;;;16.90;99.90;;;;;;5075287;28;20214;-66
2022/09/08 05:46:28;;;;;;;2.80;1.95;;;16.80;99.90;;;;;;5075721;28;20206;-68
2022/09/08 05:48:59;;;;;;;2.50;1.70;;;16.90;99.90;;;;;;5075721;28;20234;-67
2022/09/08 05:51:28;;;;;;;2.00;1.70;;;16.80;99.90;;;;;;5073184;28;20187;-67
2022/09/08 05:53:59;;;;;;;2.42;1.52;;;16.80;99.90;;;;;;5075681;28;20598;-66
2022/09/08 05:56:28;;;;;;;2.25;1.35;;;16.80;99.90;;;;;;5073336;28;20641;-68
2022/09/08 05:58:58;;;;;;;1.33;1.20;;;16.90;99.90;;;;;;5075624;28;20214;-68
2022/09/08 06:01:30;;;;;;;3.20;1.63;;;16.90;99.90;;;;;;5075787;28;20194;-67
2022/09/08 06:03:59;;;;;;;2.10;1.40;;;16.80;99.90;;;;;;5075608;28;20194;-68
2022/09/08 06:06:29;;;;;;;2.83;2.50;;;16.90;99.90;;;;;;5074559;28;20195;-68
2022/09/08 06:09:00;;;;;;;2.30;2.10;;;16.90;99.90;;;;;;5074638;28;20277;-67
2022/09/08 06:11:31;;;;;;;2.08;1.30;;;16.90;99.90;;;;;;5075325;28;20207;-68
2022/09/08 06:14:00;;;;;;;1.70;1.30;;;16.90;99.90;;;;;;5075469;28;20211;-67
2022/09/08 06:16:30;;;;;;;2.17;1.20;;;16.90;99.90;;;;;;5074122;28;20195;-66
2022/09/08 06:19:00;;;;;;;4.13;1.70;;;16.90;99.90;;;;;;5075309;28;20254;-67
2022/09/08 06:21:31;;;;;;;2.13;1.27;;;16.90;99.90;;;;;;5072316;28;20203;-68
2022/09/08 06:24:02;;;;;;;2.25;1.42;;;16.90;99.90;;;;;;5070619;28;20198;-68
2022/09/08 06:27:06;;;;;;;1.42;1.05;;;16.90;99.90;;;;;;5095524;28;20183;-67
2022/09/08 06:29:44;;;;;;;1.48;1.30;;;17.00;99.90;;;;;;5024649;28;20602;-68
2022/09/08 06:32:24;;;;;;;1.92;1.35;;;16.90;99.90;;;;;;5064073;28;20205;-68
2022/09/08 06:34:56;;;;;;;1.90;1.23;;;16.90;99.90;;;;;;5071639;28;20217;-67
2022/09/08 06:37:33;;;;;;;2.75;1.33;;;16.80;99.90;;;;;;5074341;28;20231;-68
2022/09/08 06:40:10;;;;;;;3.53;1.70;;;16.80;99.90;;;;;;5072347;28;20203;-67
2022/09/08 06:42:50;;;;;;;2.78;1.60;;;16.70;99.90;;;;;;5075186;28;20202;-69
2022/09/08 06:45:23;;;;;;;2.22;1.50;;;16.70;99.90;;;;;;5074788;28;20638;-68
2022/09/08 06:48:07;;;;;;;3.95;2.33;;;16.60;99.90;;;;;;5074383;28;20226;-68
2022/09/08 06:50:39;;;;;;;4.80;2.50;;;16.50;99.90;;;;;;5073332;28;20195;-68
2022/09/08 06:53:16;;;;;;;5.57;2.80;;;16.50;99.90;;;;;;5074708;28;20191;-67
2022/09/08 06:55:53;;;;;;;6.25;3.20;;;16.40;99.90;;;;;;5074564;28;20190;-69
2022/09/08 06:58:44;;;;;;;3.72;2.35;;;16.40;99.90;;;;;;5076353;28;20210;-67
2022/09/08 07:01:19;;;;;;;2.72;1.70;;;16.40;99.90;;;;;;5094836;28;20187;-67
2022/09/08 07:04:02;;;;;;;2.55;1.58;;;16.40;99.90;;;;;;5083628;28;20722;-67
2022/09/08 07:06:36;;;;;;;4.13;2.00;;;16.30;99.90;;;;;;5072314;28;20198;-67
2022/09/08 07:09:21;;;;;;;2.42;1.80;;;16.30;99.90;;;;;;5072887;28;20226;-64
2022/09/08 07:12:06;;;;;;;2.75;1.90;;;16.30;99.90;;;;;;5072379;28;20202;-67
2022/09/08 07:15:16;;;;;;;2.50;2.03;;;16.30;99.90;;;;;;5073075;28;20238;-66
2022/09/08 07:17:51;;;;;;;6.70;4.95;;;16.20;99.90;;;;;;5072235;28;20223;-65
2022/09/08 07:20:22;;;;;;;5.18;3.08;;;16.20;99.90;;;;;;5073475;28;20221;-66
2022/09/08 07:22:55;;;;;;;5.93;4.03;;;16.20;99.90;;;;;;5076038;28;20203;-66
2022/09/08 07:25:32;;;;;;;4.38;2.67;;;16.20;99.90;;;;;;5075429;28;20575;-66
2022/09/08 07:28:06;;;;;;;2.92;2.63;;;16.20;99.90;;;;;;5073407;28;20230;-65
2022/09/08 07:30:37;;;;;;;3.10;2.30;;;16.20;99.90;;;;;;5073242;28;20203;-65
2022/09/08 07:33:15;;;;;;;3.25;2.08;;;16.20;99.90;;;;;;5073385;28;20562;-67
2022/09/08 07:35:59;;;;;;;4.60;1.80;;;16.20;99.90;;;;;;5073733;28;20579;-65
2022/09/08 07:38:36;;;;;;;5.53;1.90;;;16.20;99.90;;;;;;5072191;28;20222;-65
2022/09/08 07:41:06;;;;;;;2.78;2.00;;;16.20;99.90;;;;;;5073750;28;20210;-65
2022/09/08 07:43:35;;;;;;;2.78;2.05;;;16.10;99.90;;;;;;5073785;28;20191;-64
2022/09/08 07:46:24;;;;;;;2.75;1.83;;;16.10;99.90;;;;;;5073574;28;20361;-65
2022/09/08 07:49:02;;;;;;;3.70;2.20;;;16.10;99.90;;;;;;5071079;28;20211;-66
2022/09/08 07:51:38;;;;;;;5.55;2.30;;;16.10;99.90;;;;;;5073574;28;20183;-66
2022/09/08 07:54:25;;;;;;;3.08;2.10;;;16.10;99.90;;;;;;5073475;28;20560;-65
2022/09/08 07:56:58;;;;;;;4.53;2.20;;;16.10;99.90;;;;;;5073457;28;20187;-65
2022/09/08 07:59:53;;;;;;;4.00;2.13;;;16.10;99.90;;;;;;5071361;28;20198;-70
2022/09/08 08:02:36;;;;;;;3.97;2.10;;;16.10;99.90;;;;;;5072796;28;20206;-65
2022/09/08 08:05:18;;;;;;;3.40;2.10;;;16.10;99.90;;;;;;5081864;28;20241;-64
2022/09/08 08:08:03;;;;;;;3.72;2.45;;;16.00;99.90;;;;;;5071976;28;20230;-65
2022/09/08 08:10:39;;;;;;;2.97;2.22;;;16.00;99.90;;;;;;5073477;28;20190;-66
2022/09/08 08:13:17;;;;;;;3.58;1.90;;;16.00;99.90;;;;;;5073164;28;20197;-65
2022/09/08 08:15:47;;;;;;;2.95;2.45;;;16.00;99.90;;;;;;5073134;28;20242;-65
2022/09/08 08:18:25;;;;;;;5.45;2.17;;;16.10;99.90;;;;;;5071829;28;20211;-67
2022/09/08 08:21:00;;;;;;;3.70;1.98;;;16.00;99.90;;;;;;5071621;28;20217;-66
2022/09/08 08:23:41;;;;;;;3.70;2.00;;;16.10;99.90;;;;;;5073503;28;20206;-65
2022/09/08 08:26:21;;;;;;;2.35;2.00;;;16.10;99.90;;;;;;5093190;28;20570;-64
2022/09/08 08:29:00;;;;;;;2.28;1.75;;;16.20;99.90;;;;;;5093146;28;20205;-65
2022/09/08 08:31:39;;;;;;;4.88;2.13;;;16.10;99.90;;;;;;5090138;28;20205;-65
2022/09/08 08:34:18;;;;;;;2.75;1.85;;;16.20;99.90;;;;;;5073375;28;20206;-65
2022/09/08 08:36:47;;;;;;;3.47;1.83;;;16.20;99.90;;;;;;5073051;28;20650;-66
2022/09/08 08:39:21;;;;;;;3.28;1.80;;;16.20;99.90;;;;;;5072774;28;20211;-66
2022/09/08 08:42:05;;;;;;;2.40;1.70;;;16.10;99.90;;;;;;5073066;28;20206;-65
2022/09/08 08:44:52;;;;;;;2.75;1.73;;;16.20;99.90;;;;;;5070790;28;20217;-65
2022/09/08 08:48:00;;;;;;;2.88;1.73;;;16.20;99.90;;;;;;5072224;28;20218;-66
2022/09/08 08:50:56;;;;;;;1.95;1.60;;;16.10;99.90;;;;;;5070839;28;20187;-66
2022/09/08 08:53:47;;;;;;;2.97;1.50;;;16.20;99.90;;;;;;5072775;28;20194;-65
2022/09/08 08:56:36;;;;;;;3.15;1.40;;;16.20;99.90;;;;;;5072178;28;20226;-64
2022/09/08 08:59:21;;;;;;;2.25;1.40;;;16.20;99.90;;;;;;5072735;28;20719;-66
2022/09/08 09:02:06;;;;;;;2.28;1.33;;;16.20;99.90;;;;;;5072897;28;20184;-67
2022/09/08 09:05:00;;;;;;;1.42;1.20;;;16.20;99.90;;;;;;5071659;28;20195;-66
2022/09/08 09:08:22;;;;;;;2.58;1.60;;;16.20;99.90;;;;;;5037704;28;20231;-68
2022/09/08 09:11:13;;;;;;;2.38;1.30;;;16.20;99.90;;;;;;5062387;28;20210;-65
2022/09/08 09:14:05;;;;;;;1.45;1.27;;;16.20;99.90;;;;;;5074965;28;20265;-66
2022/09/08 09:17:11;;;;;;;1.15;1.00;;;16.20;99.90;;;;;;5075603;28;20226;-66
2022/09/08 09:20:18;;;;;;;3.92;1.33;;;16.20;99.90;;;;;;5070397;28;20211;-66
2022/09/08 09:22:54;;;;;;;3.28;1.10;;;16.30;99.90;;;;;;5074927;28;20206;-66
2022/09/08 09:25:31;;;;;;;3.80;1.30;;;16.40;99.90;;;;;;5076165;28;20207;-66
2022/09/08 09:28:22;;;;;;;1.42;1.10;;;16.40;99.90;;;;;;5075398;28;20225;-66
2022/09/08 09:31:05;;;;;;;2.65;1.10;;;16.40;99.90;;;;;;5076311;28;20188;-66
2022/09/08 09:33:59;;;;;;;1.13;1.02;;;16.50;99.90;;;;;;5075720;28;20559;-66
2022/09/08 09:37:03;;;;;;;2.45;1.23;;;16.50;99.90;;;;;;5076052;28;20215;-66
2022/09/08 09:39:52;;;;;;;1.27;0.93;;;16.50;99.90;;;;;;5072208;28;20198;-65
2022/09/08 09:42:35;;;;;;;1.20;0.98;;;16.50;99.90;;;;;;5075836;28;20202;-67
2022/09/08 09:45:29;;;;;;;0.80;0.80;;;16.60;99.90;;;;;;5076003;28;20176;-68
2022/09/08 09:48:25;;;;;;;1.77;0.98;;;16.70;99.90;;;;;;5074705;28;20222;-66
2022/09/08 09:51:15;;;;;;;1.45;1.00;;;16.80;99.90;;;;;;5074121;28;20222;-66
2022/09/08 09:54:16;;;;;;;1.73;0.90;;;17.00;99.90;;;;;;5075742;28;20179;-66
2022/09/08 09:57:24;;;;;;;0.90;0.80;;;17.30;99.90;;;;;;5072911;28;20218;-65
2022/09/08 10:00:14;;;;;;;2.15;1.17;;;17.50;99.90;;;;;;5075734;28;20558;-68
2022/09/08 10:03:22;;;;;;;2.28;0.90;;;17.70;99.90;;;;;;5074557;28;20566;-65
2022/09/08 10:06:24;;;;;;;1.58;1.05;;;17.90;99.90;;;;;;5075431;28;20206;-67
2022/09/08 10:09:35;;;;;;;1.02;0.70;;;18.10;99.90;;;;;;5074119;28;20237;-67
2022/09/08 10:12:33;;;;;;;0.63;0.60;;;18.40;99.90;;;;;;5077116;28;20210;-68
2022/09/08 10:15:46;;;;;;;2.30;0.77;;;18.40;99.90;;;;;;5071940;28;20642;-68
2022/09/08 10:18:45;;;;;;;1.23;1.00;;;18.50;99.90;;;;;;5072333;28;20207;-67
2022/09/08 10:21:57;;;;;;;1.35;0.60;;;18.70;99.90;;;;;;5075322;28;20210;-68
2022/09/08 10:25:06;;;;;;;1.25;0.80;;;18.70;99.90;;;;;;5067230;28;20202;-68
2022/09/08 10:28:20;;;;;;;2.20;0.50;;;18.70;99.90;;;;;;5071687;28;20685;-68
2022/09/08 10:31:19;;;;;;;1.77;0.77;;;18.50;99.90;;;;;;5073959;28;20542;-68
2022/09/08 10:34:09;;;;;;;0.50;0.47;;;18.30;99.90;;;;;;5074225;28;20202;-69
2022/09/08 10:36:57;;;;;;;1.15;0.60;;;18.10;99.90;;;;;;5075168;28;20673;-70
2022/09/08 10:39:40;;;;;;;0.98;0.70;;;18.00;99.90;;;;;;5072548;28;20202;-70
2022/09/08 10:42:38;;;;;;;0.80;0.57;;;18.00;99.90;;;;;;5083486;28;20194;-70
2022/09/08 10:45:30;;;;;;;0.50;0.50;;;18.00;99.90;;;;;;5076451;28;20218;-70
2022/09/08 10:48:43;;;;;;;1.27;0.60;;;18.10;99.90;;;;;;5065769;28;20219;-71
2022/09/08 10:51:47;;;;;;;0.60;0.60;;;18.20;99.90;;;;;;5074667;28;20654;-71
2022/09/08 10:55:01;;;;;;;1.48;0.50;;;18.60;99.90;;;;;;5074503;28;20218;-71
2022/09/08 10:57:49;;;;;;;3.70;0.60;;;18.90;99.90;;;;;;5045942;28;20704;-71
2022/09/08 11:00:21;;;;;;;0.93;0.60;;;19.00;99.90;;;;;;5077441;28;20195;-72
2022/09/08 11:03:14;;;;;;;3.10;0.80;;;19.10;99.90;;;;;;5078027;28;20292;-71
2022/09/08 11:05:49;;;;;;;2.17;0.60;;;19.30;99.90;;;;;;5073051;28;20199;-72
2022/09/08 11:09:03;;;;;;;4.68;0.50;;;19.40;99.90;;;;;;5073801;28;20230;-70
2022/09/08 11:12:11;;;;;;;0.80;0.55;;;19.70;99.90;;;;;;5058211;28;20195;-73
2022/09/08 11:15:16;;;;;;;1.52;0.60;;;19.90;99.90;;;;;;5074244;28;20673;-70
2022/09/08 11:17:47;;;;;;;3.42;0.70;;;20.40;99.90;;;;;;5072577;28;20234;-69
2022/09/08 11:20:27;;;;;;;0.65;0.60;;;20.40;99.90;;;;;;5071818;28;20187;-70
2022/09/08 11:23:08;;;;;;;0.55;0.50;;;20.30;99.90;;;;;;5072722;28;20211;-69
2022/09/08 11:26:18;;;;;;;0.40;0.40;;;20.10;99.90;;;;;;5074051;28;20198;-70
2022/09/08 11:28:57;;;;;;;1.27;0.50;;;20.20;99.90;;;;;;5073839;28;20219;-71
2022/09/08 11:31:38;;;;;;;1.55;0.50;;;20.30;99.90;;;;;;5079288;28;20299;-69
2022/09/08 11:34:48;;;;;;;2.90;0.70;;;20.40;99.90;;;;;;5072759;28;20214;-70
2022/09/08 11:37:56;;;;;;;0.50;0.50;;;20.50;99.90;;;;;;5071970;28;20246;-70
2022/09/08 11:40:44;;;;;;;1.10;0.50;;;20.30;99.90;;;;;;5073534;28;20212;-70
2022/09/08 11:43:28;;;;;;;1.17;0.57;;;20.30;99.90;;;;;;5073912;28;20711;-71
2022/09/08 11:46:12;;;;;;;1.70;0.45;;;20.40;99.90;;;;;;5072654;28;20199;-70
2022/09/08 11:49:20;;;;;;;1.98;0.50;;;20.50;99.90;;;;;;5076330;28;20735;-70
2022/09/08 11:52:33;;;;;;;0.52;0.50;;;20.70;99.90;;;;;;5072700;28;20667;-69
2022/09/08 11:55:26;;;;;;;1.15;0.70;;;21.10;99.40;;;;;;5073636;28;20561;-70
2022/09/08 11:58:09;;;;;;;1.15;0.80;;;21.30;99.00;;;;;;5073521;28;20227;-69
2022/09/08 12:00:56;;;;;;;1.00;0.68;;;21.30;98.40;;;;;;5072300;28;20562;-70
2022/09/08 12:03:51;;;;;;;1.23;0.60;;;21.30;97.80;;;;;;5072736;28;20190;-69
2022/09/08 12:06:49;;;;;;;1.27;0.60;;;21.30;97.20;;;;;;5073195;28;20199;-69
2022/09/08 12:09:39;;;;;;;2.15;0.50;;;21.30;96.40;;;;;;5073452;28;20564;-69
2022/09/08 12:12:22;;;;;;;1.80;0.60;;;21.50;96.90;;;;;;5074117;28;20209;-70
2022/09/08 12:15:01;;;;;;;1.20;0.60;;;22.00;95.90;;;;;;5073384;28;20203;-70
2022/09/08 12:17:43;;;;;;;0.95;0.75;;;22.10;96.40;;;;;;5073492;28;20234;-69
2022/09/08 12:20:27;;;;;;;1.15;0.90;;;22.50;96.20;;;;;;5073222;28;20187;-69
2022/09/08 12:23:26;;;;;;;2.05;0.80;;;22.60;95.20;;;;;;5072088;28;20211;-72
2022/09/08 12:26:22;;;;;;;0.85;0.60;;;22.60;95.10;;;;;;5072568;28;20191;-69
2022/09/08 12:29:23;;;;;;;1.23;0.70;;;22.20;94.30;;;;;;5068689;28;20603;-70
2022/09/08 12:32:08;;;;;;;1.15;0.60;;;22.00;94.10;;;;;;5073211;28;20581;-70
2022/09/08 12:35:05;;;;;;;1.27;0.70;;;21.90;94.40;;;;;;5073057;28;20188;-69
2022/09/08 12:37:44;;;;;;;1.63;0.75;;;21.80;94.30;;;;;;5072429;28;20723;-69
2022/09/08 12:40:36;;;;;;;2.13;0.60;;;21.70;94.20;;;;;;5071515;28;20217;-70
2022/09/08 12:43:19;;;;;;;2.05;0.80;;;21.60;93.50;;;;;;5072333;28;20580;-69
2022/09/08 12:46:26;;;;;;;0.75;0.52;;;21.60;94.20;;;;;;5073042;28;20186;-69
2022/09/08 12:48:59;;;;;;;1.88;0.70;;;21.80;93.00;;;;;;5056873;28;20233;-68
2022/09/08 12:51:32;;;;;;;0.70;0.63;;;22.10;92.20;;;;;;5076275;28;20649;-70
2022/09/08 12:54:14;;;;;;;1.25;0.50;;;22.30;92.40;;;;;;5077020;28;20641;-69
2022/09/08 12:56:59;;;;;;;3.03;0.60;;;22.20;91.80;;;;;;5076212;28;20209;-70
2022/09/08 12:59:42;;;;;;;2.53;0.80;;;22.20;90.70;;;;;;5084148;28;20215;-70
2022/09/08 13:02:44;;;;;;;2.90;0.73;;;22.20;90.90;;;;;;5077734;28;20190;-68
2022/09/08 13:05:31;;;;;;;2.33;0.73;;;22.40;91.20;;;;;;5075862;28;20183;-69
2022/09/08 13:08:15;;;;;;;0.77;0.60;;;22.60;91.10;;;;;;5075454;28;20728;-68
2022/09/08 13:10:46;;;;;;;1.60;0.73;;;22.70;90.60;;;;;;5076714;28;20546;-68
2022/09/08 13:13:32;;;;;;;1.25;0.70;;;22.70;90.60;;;;;;5076000;28;20195;-69
2022/09/08 13:16:26;;;;;;;2.45;0.70;;;22.80;91.20;;;;;;5075788;28;20199;-68
2022/09/08 13:19:03;;;;;;;4.45;0.80;;;22.90;90.30;;;;;;5071701;28;20239;-70
2022/09/08 13:22:01;;;;;;;0.80;0.50;;;22.90;89.40;;;;;;5076444;28;20206;-69
2022/09/08 13:24:38;;;;;;;1.95;0.65;;;22.60;88.70;;;;;;5076537;28;20203;-70
2022/09/08 13:27:18;;;;;;;1.67;0.70;;;22.30;89.10;;;;;;5074241;28;20202;-69
2022/09/08 13:30:04;;;;;;;2.28;0.68;;;22.00;88.40;;;;;;5075632;28;20661;-69
2022/09/08 13:33:15;;;;;;;3.75;0.90;;;21.70;89.10;;;;;;5074219;28;20191;-69
2022/09/08 13:36:08;;;;;;;1.17;0.70;;;21.60;90.20;;;;;;5072368;28;20207;-69
2022/09/08 13:38:55;;;;;;;0.70;0.70;;;21.40;90.30;;;;;;5073824;28;20227;-70
2022/09/08 13:41:43;;;;;;;0.88;0.60;;;21.30;90.10;;;;;;5075140;28;20203;-69
2022/09/08 13:44:26;;;;;;;3.13;0.80;;;21.30;90.00;;;;;;5075697;28;20199;-70
2022/09/08 13:47:17;;;;;;;2.78;0.80;;;21.20;89.50;;;;;;5076251;28;20213;-69
2022/09/08 13:50:03;;;;;;;1.20;0.52;;;21.10;90.10;;;;;;5074930;28;20202;-68
2022/09/08 13:52:45;;;;;;;1.25;0.65;;;21.00;89.90;;;;;;5075431;28;20206;-70
2022/09/08 13:55:40;;;;;;;2.60;0.73;;;21.10;89.30;;;;;;5075803;28;20183;-69